Date,TemperatureHighF,TemperatureAvgF,TemperatureLowF,DewpointHighF,DewpointAvgF,DewpointLowF,HumidityHigh,HumidityAvg,HumidityLow,PressureMaxIn,PressureMinIn,WindSpeedMaxMPH,WindSpeedAvgMPH,GustSpeedMaxMPH,PrecipitationSumIn
2013-3-1,50,38,27,33,28,24,90,69,50,30.34,30.23,16,5,21,0.00
2013-3-2,52,38,25,30,25,20,85,63,36,30.45,30.23,13,4,17,0.00
2013-3-3,69,51,31,40,33,27,87,54,30,30.23,29.67,25,10,32,0.00
2013-3-4,80,64,46,45,42,36,76,47,27,29.87,29.55,26,12,41,0.00
2013-3-5,54,45,38,39,25,17,79,47,27,30.38,29.86,27,11,41,0.00
2013-3-6,57,42,25,27,22,17,85,49,22,30.48,30.19,10,3,13,0.00
2013-3-7,70,54,37,34,29,23,63,41,22,30.22,30.06,21,9,27,0.00
2013-3-8,61,56,52,55,47,33,88,73,44,30.14,29.92,20,10,28,0.00
2013-3-9,65,58,54,62,56,53,99,93,82,29.92,29.60,18,8,26,0.87
2013-3-10,55,45,36,54,37,30,98,74,59,30.09,29.66,19,8,26,0.01
2013-3-11,58,41,29,34,26,17,92,60,23,30.12,29.99,13,4,18,0.00
2013-3-12,64,48,32,39,32,24,86,56,31,30.33,30.03,16,4,21,0.00
2013-3-13,64,50,32,36,32,25,90,55,30,30.47,30.31,12,4,15,0.00
2013-3-14,77,59,41,50,42,33,78,55,34,30.33,30.12,21,8,26,0.00
2013-3-15,81,66,51,54,48,44,82,56,34,30.12,29.79,26,12,33,0.00
2013-3-16,81,68,57,58,52,44,74,57,41,29.79,29.62,23,11,31,0.00
2013-3-17,65,53,44,55,44,39,89,74,62,29.78,29.64,14,4,20,0.00
2013-3-18,65,51,41,47,41,36,95,70,37,30.02,29.63,17,5,25,0.00
2013-3-19,61,51,36,40,35,27,91,59,29,30.16,29.98,16,4,23,0.00
2013-3-20,64,51,38,39,32,27,73,50,27,30.33,30.03,10,3,14,0.00
2013-3-21,65,52,46,46,38,31,81,59,45,30.03,29.54,21,9,31,0.03
2013-3-22,48,44,40,43,40,37,96,84,70,29.88,29.59,17,8,26,0.00
2013-3-23,49,45,42,46,43,39,97,93,88,29.88,29.67,17,4,25,0.10
2013-3-24,50,41,35,39,27,17,91,60,31,30.21,29.86,24,12,37,0.00
2013-3-25,50,38,26,24,19,14,76,48,27,30.42,30.21,21,7,26,0.00
2013-3-26,57,39,20,28,21,16,87,53,27,30.51,30.28,10,2,13,0.00
2013-3-27,68,53,36,41,33,24,66,49,31,30.30,30.05,28,11,38,0.00
2013-3-28,70,60,48,57,50,41,86,71,59,30.18,30.03,22,10,26,0.00
2013-3-29,76,65,58,60,57,54,91,76,56,30.12,29.99,22,10,27,0.04
2013-3-30,79,66,54,65,59,52,97,81,58,30.00,29.82,34,8,43,0.12
2013-3-31,72,62,50,60,52,44,96,73,41,29.98,29.76,30,4,43,0.43